Terminal Aerodrome Forecast
Issued by NWS

Home | Current Version | Previous Version | Text Only | Print | Product List | Glossary On
Versions: 1 2 3 4 5 6 7 8 9 10 11 12 13
000
FTUS45 KABQ 282330
TAFLVS
TAF
KLVS 282330Z 2900/2924 23010G17KT P6SM BKN110
     FM290200 17008KT P6SM SCT120
     FM290900 15006KT P6SM FEW120
     FM291700 19015G25KT P6SM SCT100
     FM292000 19020G32KT P6SM SCT120=

USA.gov is the U.S. government's official web portal to all federal, state and local government web resources and services.